createdAt,value
2023-04-03T00:00:50.914Z,94274.16
2023-04-03T00:03:18.936Z,94273.53
2023-04-03T00:05:46.713Z,94271.59
2023-04-03T00:08:13.453Z,94281.06
2023-04-03T00:10:40.374Z,94279.09
2023-04-03T00:13:07.758Z,94283.38
2023-04-03T00:15:35.155Z,94283.53
2023-04-03T00:18:02.533Z,94286.41
2023-04-03T00:20:29.514Z,94291.34
2023-04-03T00:22:56.328Z,94294.00
2023-04-03T00:25:23.106Z,94295.16
2023-04-03T00:27:49.896Z,94282.31
2023-04-03T00:30:18.890Z,94285.13
2023-04-03T00:32:45.987Z,94287.03
2023-04-03T00:35:12.741Z,94292.16
2023-04-03T00:37:39.397Z,94293.38
2023-04-03T00:40:07.143Z,94291.59
2023-04-03T00:42:33.945Z,94291.06
2023-04-03T00:45:01.834Z,94298.16
2023-04-03T00:47:28.714Z,94297.88
2023-04-03T00:49:55.452Z,94297.00
2023-04-03T00:52:25.004Z,94297.50
2023-04-03T00:54:53.485Z,94305.84
2023-04-03T00:57:20.600Z,94302.13
2023-04-03T00:59:52.275Z,94304.78
2023-04-03T01:02:19.798Z,94291.75
2023-04-03T01:04:48.328Z,94304.72
2023-04-03T01:07:21.815Z,94295.88
2023-04-03T01:09:49.665Z,94309.91
2023-04-03T01:12:21.911Z,94315.84
2023-04-03T01:14:52.358Z,94311.97
2023-04-03T01:17:28.166Z,94313.59
2023-04-03T01:20:12.963Z,94318.66
2023-04-03T01:22:58.243Z,94315.84
2023-04-03T01:25:25.579Z,94323.19
2023-04-03T01:27:52.282Z,94315.28
2023-04-03T01:30:21.214Z,94324.59
2023-04-03T01:32:48.038Z,94328.38
2023-04-03T01:35:14.746Z,94327.38
2023-04-03T01:37:41.531Z,94330.41
2023-04-03T01:40:09.286Z,94332.50
2023-04-03T01:42:36.038Z,94346.84
2023-04-03T01:45:02.879Z,94332.94
2023-04-03T01:47:29.699Z,94349.88
2023-04-03T01:49:56.530Z,94353.06
2023-04-03T01:52:23.273Z,94353.06
2023-04-03T01:54:50.055Z,94365.41
2023-04-03T01:57:17.293Z,94343.28
2023-04-03T01:59:44.068Z,94357.72
2023-04-03T02:02:10.887Z,94361.44
2023-04-03T02:04:37.601Z,94364.81
2023-04-03T02:07:04.266Z,94362.34
2023-04-03T02:09:31.135Z,94359.78
2023-04-03T02:11:57.814Z,94353.38
2023-04-03T02:14:24.800Z,94349.72
2023-04-03T02:16:51.593Z,94355.06
2023-04-03T02:19:18.396Z,94356.56
2023-04-03T02:21:45.682Z,94359.56
2023-04-03T02:24:12.431Z,94365.34
2023-04-03T02:26:39.150Z,94355.94
2023-04-03T02:29:06.098Z,94361.38
2023-04-03T02:31:33.073Z,94358.16
2023-04-03T02:33:59.869Z,94364.75
2023-04-03T02:36:26.746Z,94360.59
2023-04-03T02:38:53.545Z,94355.13
2023-04-03T02:41:20.291Z,94360.66
2023-04-03T02:43:47.032Z,94359.06
2023-04-03T02:46:16.160Z,94371.59
2023-04-03T02:48:42.960Z,94362.66
2023-04-03T02:51:09.670Z,94372.13
2023-04-03T02:53:36.388Z,94364.25
2023-04-03T02:56:03.135Z,94371.75
2023-04-03T02:58:29.909Z,94380.41
2023-04-03T03:00:56.652Z,94367.00
2023-04-03T03:03:24.145Z,94384.00
2023-04-03T03:05:50.916Z,94386.41
2023-04-03T03:08:21.208Z,94390.75
2023-04-03T03:10:48.035Z,94384.03
2023-04-03T03:13:14.753Z,94375.72
2023-04-03T03:15:41.543Z,94391.06
2023-04-03T03:18:08.353Z,94393.69
2023-04-03T03:20:35.824Z,94393.72
2023-04-03T03:23:02.755Z,94396.75
2023-04-03T03:25:29.521Z,94396.28
2023-04-03T03:27:56.312Z,94387.59
2023-04-03T03:30:23.105Z,94390.56
2023-04-03T03:32:49.826Z,94388.16
2023-04-03T03:35:16.632Z,94374.84
2023-04-03T03:37:43.370Z,94388.63
2023-04-03T03:40:12.262Z,94384.78
2023-04-03T03:42:38.961Z,94380.94
2023-04-03T03:45:06.626Z,94383.34
2023-04-03T03:47:33.418Z,94368.84
2023-04-03T03:50:00.430Z,94376.22
2023-04-03T03:52:27.406Z,94370.75
2023-04-03T03:54:54.171Z,94364.03
2023-04-03T03:57:21.709Z,94371.06
2023-04-03T03:59:49.767Z,94361.16
2023-04-03T04:02:17.411Z,94370.72
2023-04-03T04:04:44.225Z,94371.22
2023-04-03T04:07:11.014Z,94374.25
2023-04-03T04:09:37.803Z,94378.41
2023-04-03T04:12:04.916Z,94373.63
2023-04-03T04:14:31.697Z,94372.16
2023-04-03T04:16:58.590Z,94371.22
2023-04-03T04:19:25.436Z,94369.44
2023-04-03T04:21:52.199Z,94369.13
2023-04-03T04:24:18.929Z,94376.13
2023-04-03T04:26:45.617Z,94364.16
2023-04-03T04:29:12.373Z,94376.66
2023-04-03T04:31:38.965Z,94376.38
2023-04-03T04:34:05.613Z,94377.13
2023-04-03T04:36:32.316Z,94378.91
2023-04-03T04:38:59.626Z,94378.09
2023-04-03T04:41:26.316Z,94378.25
2023-04-03T04:43:53.366Z,94377.47
2023-04-03T04:46:20.071Z,94380.66
2023-04-03T04:48:47.005Z,94382.91
2023-04-03T04:51:13.719Z,94380.97
2023-04-03T04:53:40.496Z,94360.00
2023-04-03T04:56:07.511Z,94386.28
2023-04-03T04:58:34.179Z,94384.81
2023-04-03T05:01:01.974Z,94391.34
2023-04-03T05:03:28.721Z,94384.47
2023-04-03T05:05:55.669Z,94381.91
2023-04-03T05:08:22.683Z,94387.03
2023-04-03T05:10:49.360Z,94387.34
2023-04-03T05:13:16.486Z,94373.28
2023-04-03T05:15:43.280Z,94387.03
2023-04-03T05:18:10.056Z,94389.13
2023-04-03T05:20:37.718Z,94388.63
2023-04-03T05:23:04.768Z,94381.63
2023-04-03T05:25:31.659Z,94394.44
2023-04-03T05:27:58.422Z,94396.69
2023-04-03T05:30:25.670Z,94399.56
2023-04-03T05:32:52.520Z,94391.06
2023-04-03T05:35:19.268Z,94391.25
2023-04-03T05:37:46.348Z,94396.38
2023-04-03T05:40:13.318Z,94398.25
2023-04-03T05:42:40.085Z,94398.44
2023-04-03T05:45:07.361Z,94395.38
2023-04-03T05:47:34.182Z,94402.75
2023-04-03T05:50:00.878Z,94396.47
2023-04-03T05:52:30.254Z,94395.16
2023-04-03T05:54:57.306Z,94395.31
2023-04-03T05:57:24.609Z,94403.53
2023-04-03T05:59:51.606Z,94389.28
2023-04-03T06:02:21.814Z,94401.25
2023-04-03T06:04:49.250Z,94395.28
2023-04-03T06:07:18.844Z,94402.84
2023-04-03T06:09:45.562Z,94404.53
2023-04-03T06:12:12.518Z,94396.94
2023-04-03T06:14:39.269Z,94407.00
2023-04-03T06:17:06.103Z,94402.94
2023-04-03T06:19:32.996Z,94405.94
2023-04-03T06:21:59.733Z,94412.66
2023-04-03T06:24:26.579Z,94415.53
2023-04-03T06:26:54.168Z,94422.91
2023-04-03T06:29:21.572Z,94403.66
2023-04-03T06:31:48.946Z,94422.75
2023-04-03T06:34:16.971Z,94437.19
2023-04-03T06:36:44.292Z,94434.53
2023-04-03T06:39:21.461Z,94438.16
2023-04-03T06:41:48.089Z,94432.13
2023-04-03T06:44:16.847Z,94435.34
2023-04-03T06:46:44.308Z,94428.09
2023-04-03T06:49:11.464Z,94433.19
2023-04-03T06:51:38.346Z,94430.38
2023-04-03T06:54:06.863Z,94437.94
2023-04-03T06:56:33.968Z,94441.22
2023-04-03T06:59:00.985Z,94424.13
2023-04-03T07:01:29.528Z,94436.81
2023-04-03T07:03:56.510Z,94449.69
2023-04-03T07:06:23.773Z,94444.72
2023-04-03T07:08:50.552Z,94447.88
2023-04-03T07:11:18.064Z,94453.06
2023-04-03T07:13:44.819Z,94454.03
2023-04-03T07:16:12.116Z,94455.16
2023-04-03T07:18:39.021Z,94455.16
2023-04-03T07:21:06.157Z,94463.34
2023-04-03T07:23:33.017Z,94458.94
2023-04-03T07:26:00.126Z,94466.91
2023-04-03T07:28:27.132Z,94466.56
2023-04-03T07:31:02.112Z,94470.56
2023-04-03T07:33:29.044Z,94474.50
2023-04-03T07:35:56.239Z,94467.81
2023-04-03T07:38:23.144Z,94476.38
2023-04-03T07:40:51.651Z,94479.84
2023-04-03T07:43:19.700Z,94478.53
2023-04-03T07:45:46.463Z,94479.38
2023-04-03T07:48:14.012Z,94486.13
2023-04-03T07:50:43.809Z,94488.53
2023-04-03T07:53:10.702Z,94488.69
2023-04-03T07:55:43.836Z,94484.34
2023-04-03T07:58:16.116Z,94488.53
2023-04-03T08:00:43.254Z,94491.91
2023-04-03T08:03:12.905Z,94479.63
2023-04-03T08:05:41.900Z,94491.44
2023-04-03T08:08:09.634Z,94477.38
2023-04-03T08:10:36.512Z,94481.66
2023-04-03T08:13:03.445Z,94487.09
2023-04-03T08:15:31.796Z,94489.69
2023-04-03T08:17:59.717Z,94495.63
2023-04-03T08:20:26.843Z,94496.44
2023-04-03T08:22:53.939Z,94490.13
2023-04-03T08:25:20.989Z,94496.09
2023-04-03T08:27:47.792Z,94499.72
2023-04-03T08:30:15.224Z,94497.34
2023-04-03T08:32:44.195Z,94482.94
2023-04-03T08:35:11.742Z,94503.97
2023-04-03T08:37:39.179Z,94514.47
2023-04-03T08:40:08.053Z,94509.72
2023-04-03T08:42:43.555Z,94501.31
2023-04-03T08:45:39.414Z,94506.41
2023-04-03T08:48:11.090Z,94514.34
2023-04-03T08:50:41.863Z,94519.34
2023-04-03T08:53:35.357Z,94515.44
2023-04-03T08:56:09.197Z,94504.47
2023-04-03T08:59:06.429Z,94488.78
2023-04-03T09:01:41.149Z,94510.16
2023-04-03T09:04:14.282Z,94499.66
2023-04-03T09:06:44.454Z,94503.72
2023-04-03T09:09:11.853Z,94499.25
2023-04-03T09:11:46.715Z,94499.16
2023-04-03T09:14:41.739Z,94502.06
2023-04-03T09:17:31.783Z,94510.69
2023-04-03T09:20:09.773Z,94509.34
2023-04-03T09:22:45.613Z,94511.09
2023-04-03T09:25:22.596Z,94507.56
2023-04-03T09:27:49.626Z,94512.44
2023-04-03T09:30:21.404Z,94517.84
2023-04-03T09:32:50.719Z,94519.59
2023-04-03T09:35:36.269Z,94527.56
2023-04-03T09:38:11.266Z,94518.97
2023-04-03T09:40:46.818Z,94521.63
2023-04-03T09:43:29.651Z,94522.91
2023-04-03T09:45:57.706Z,94527.94
2023-04-03T09:48:26.658Z,94520.31
2023-04-03T09:51:00.536Z,94522.59
2023-04-03T09:53:38.443Z,94518.34
2023-04-03T09:56:17.424Z,94516.63
2023-04-03T09:58:50.848Z,94522.59
2023-04-03T10:01:27.795Z,94527.97
2023-04-03T10:04:23.841Z,94524.41
2023-04-03T10:06:53.280Z,94531.78
2023-04-03T10:09:31.163Z,94523.88
2023-04-03T10:12:10.982Z,94530.28
2023-04-03T10:14:58.483Z,94526.91
2023-04-03T10:17:37.394Z,94531.56
2023-04-03T10:20:46.167Z,94538.78
2023-04-03T10:23:28.536Z,94534.34
2023-04-03T10:26:14.005Z,94539.72
2023-04-03T10:29:13.779Z,94533.38
2023-04-03T10:32:01.507Z,94538.59
2023-04-03T10:34:32.652Z,94534.72
2023-04-03T10:37:14.653Z,94539.63
2023-04-03T10:40:03.256Z,94534.91
2023-04-03T10:42:42.150Z,94526.03
2023-04-03T10:45:29.589Z,94540.53
2023-04-03T10:48:10.461Z,94531.28
2023-04-03T10:51:02.054Z,94528.81
2023-04-03T10:53:40.227Z,94520.28
2023-04-03T10:56:43.453Z,94516.44
2023-04-03T10:59:37.824Z,94517.97
2023-04-03T11:02:09.853Z,94513.63
2023-04-03T11:04:39.153Z,94504.09
2023-04-03T11:07:13.852Z,94506.50
2023-04-03T11:09:45.715Z,94498.38
2023-04-03T11:12:18.531Z,94501.19
2023-04-03T11:14:48.346Z,94499.84
2023-04-03T11:17:23.958Z,94500.19
2023-04-03T11:20:15.929Z,94495.41
2023-04-03T11:22:46.379Z,94493.91
2023-04-03T11:25:13.084Z,94493.97
2023-04-03T11:27:58.764Z,94490.34
2023-04-03T11:30:35.784Z,94483.28
2023-04-03T11:33:24.575Z,94487.66
2023-04-03T11:35:54.322Z,94485.03
2023-04-03T11:38:30.657Z,94490.63
2023-04-03T11:40:58.865Z,94488.84
2023-04-03T11:43:29.778Z,94489.00
2023-04-03T11:46:05.954Z,94486.06
2023-04-03T11:48:33.238Z,94486.22
2023-04-03T11:51:03.653Z,94487.31
2023-04-03T11:53:36.022Z,94498.81
2023-04-03T11:56:22.256Z,94486.34
2023-04-03T11:59:24.494Z,94497.09
2023-04-03T12:01:59.416Z,94490.25
2023-04-03T12:04:28.783Z,94487.94
2023-04-03T12:07:31.532Z,94487.09
2023-04-03T12:09:59.716Z,94476.25
2023-04-03T12:12:31.771Z,94471.50
2023-04-03T12:15:18.700Z,94478.66
2023-04-03T12:17:45.573Z,94484.81
2023-04-03T12:20:49.603Z,94455.97
2023-04-03T12:23:33.926Z,94467.84
2023-04-03T12:26:22.937Z,94474.22
2023-04-03T12:28:51.042Z,94482.66
2023-04-03T12:31:18.215Z,94476.25
2023-04-03T12:34:11.342Z,94487.19
2023-04-03T12:36:52.575Z,94482.50
2023-04-03T12:39:42.528Z,94490.00
2023-04-03T12:42:33.828Z,94497.31
2023-04-03T12:45:22.586Z,94493.22
2023-04-03T12:47:51.424Z,94501.50
2023-04-03T12:50:25.053Z,94498.56
2023-04-03T12:53:07.754Z,94492.22
2023-04-03T12:55:34.721Z,94503.94
2023-04-03T12:58:23.681Z,94505.50
2023-04-03T13:01:12.647Z,94510.66
2023-04-03T13:03:41.359Z,94504.63
2023-04-03T13:06:08.253Z,94504.56
2023-04-03T13:08:34.978Z,94512.00
2023-04-03T13:11:11.510Z,94511.16
2023-04-03T13:13:40.149Z,94508.47
2023-04-03T13:16:12.701Z,94511.94
2023-04-03T13:18:39.626Z,94513.56
2023-04-03T13:21:11.559Z,94525.88
2023-04-03T13:23:41.004Z,94522.44
2023-04-03T13:26:08.283Z,94519.47
2023-04-03T13:28:35.513Z,94518.44
2023-04-03T13:31:25.592Z,94517.88
2023-04-03T13:34:07.411Z,94525.78
2023-04-03T13:36:42.541Z,94521.09
2023-04-03T13:39:31.851Z,94516.75
2023-04-03T13:42:02.863Z,94513.00
2023-04-03T13:44:36.407Z,94504.88
2023-04-03T13:47:17.015Z,94507.88
2023-04-03T13:49:46.819Z,94491.50
2023-04-03T13:52:27.240Z,94492.34
2023-04-03T13:55:03.091Z,94497.97
2023-04-03T13:57:32.706Z,94494.78
2023-04-03T13:59:59.538Z,94491.75
2023-04-03T14:02:34.683Z,94493.38
2023-04-03T14:05:04.442Z,94501.78
2023-04-03T14:07:32.313Z,94494.25
2023-04-03T14:09:59.278Z,94503.22
2023-04-03T14:12:33.014Z,94495.94
2023-04-03T14:15:02.429Z,94491.25
2023-04-03T14:17:29.558Z,94493.09
2023-04-03T14:19:58.928Z,94496.75
2023-04-03T14:22:29.528Z,94494.59
2023-04-03T14:24:57.206Z,94496.75
2023-04-03T14:27:36.308Z,94494.34
2023-04-03T14:30:05.197Z,94509.63
2023-04-03T14:32:32.374Z,94507.56
2023-04-03T14:34:59.780Z,94488.47
2023-04-03T14:37:30.256Z,94498.63
2023-04-03T14:40:00.238Z,94498.56
2023-04-03T14:42:31.065Z,94497.59
2023-04-03T14:44:59.079Z,94494.44
2023-04-03T14:47:31.891Z,94488.50
2023-04-03T14:50:01.521Z,94493.78
2023-04-03T14:52:33.094Z,94487.81
2023-04-03T14:55:01.575Z,94487.03
2023-04-03T14:57:29.996Z,94486.78
2023-04-03T14:59:57.161Z,94489.25
2023-04-03T15:02:36.971Z,94495.63
2023-04-03T15:05:07.233Z,94482.91
2023-04-03T15:07:36.950Z,94492.22
2023-04-03T15:10:19.006Z,94485.25
2023-04-03T15:12:46.960Z,94486.88
2023-04-03T15:15:15.429Z,94491.16
2023-04-03T15:17:43.007Z,94488.41
2023-04-03T15:20:21.614Z,94477.00
2023-04-03T15:22:48.796Z,94466.94
2023-04-03T15:25:15.907Z,94480.06
2023-04-03T15:27:43.139Z,94485.69
2023-04-03T15:30:16.080Z,94484.19
2023-04-03T15:32:42.916Z,94487.59
2023-04-03T15:35:10.023Z,94478.09
2023-04-03T15:37:36.756Z,94489.69
2023-04-03T15:40:05.285Z,94486.84
2023-04-03T15:42:31.999Z,94481.41
2023-04-03T15:44:58.734Z,94490.78
2023-04-03T15:47:26.877Z,94479.06
2023-04-03T15:49:54.832Z,94492.22
2023-04-03T15:52:21.545Z,94496.38
2023-04-03T15:54:48.222Z,94481.25
2023-04-03T15:57:14.977Z,94492.22
2023-04-03T15:59:41.764Z,94496.03
2023-04-03T16:02:09.476Z,94492.97
2023-04-03T16:04:36.460Z,94498.25
2023-04-03T16:07:04.439Z,94494.94
2023-04-03T16:09:32.709Z,94502.34
2023-04-03T16:11:59.594Z,94502.06
2023-04-03T16:14:26.244Z,94499.09
2023-04-03T16:16:53.000Z,94509.50
2023-04-03T16:19:19.865Z,94506.63
2023-04-03T16:21:47.722Z,94502.38
2023-04-03T16:24:16.196Z,94505.78
2023-04-03T16:26:45.367Z,94500.72
2023-04-03T16:29:12.038Z,94495.53
2023-04-03T16:31:38.875Z,94495.34
2023-04-03T16:34:05.552Z,94507.88
2023-04-03T16:36:32.393Z,94504.31
2023-04-03T16:38:59.152Z,94507.50
2023-04-03T16:41:25.885Z,94512.69
2023-04-03T16:43:52.690Z,94503.22
2023-04-03T16:46:19.480Z,94496.34
2023-04-03T16:48:46.235Z,94510.75
2023-04-03T16:51:14.233Z,94500.44
2023-04-03T16:53:41.174Z,94523.38
2023-04-03T16:56:07.901Z,94510.44
2023-04-03T16:58:34.705Z,94512.50
2023-04-03T17:01:16.632Z,94507.03
2023-04-03T17:03:43.524Z,94508.47
2023-04-03T17:06:17.351Z,94515.38
2023-04-03T17:08:46.116Z,94513.44
2023-04-03T17:11:13.088Z,94513.97
2023-04-03T17:13:39.830Z,94520.53
2023-04-03T17:16:10.219Z,94523.91
2023-04-03T17:18:37.071Z,94524.38
2023-04-03T17:21:04.776Z,94531.78
2023-04-03T17:23:31.642Z,94526.00
2023-04-03T17:25:58.334Z,94523.44
2023-04-03T17:28:28.790Z,94530.66
2023-04-03T17:30:59.763Z,94528.25
2023-04-03T17:33:28.548Z,94539.44
2023-04-03T17:35:59.358Z,94536.56
2023-04-03T17:38:27.240Z,94531.63
2023-04-03T17:40:58.071Z,94543.78
2023-04-03T17:43:25.609Z,94537.84
2023-04-03T17:45:52.387Z,94536.75
2023-04-03T17:48:19.577Z,94535.13
2023-04-03T17:50:46.754Z,94551.47
2023-04-03T17:53:15.250Z,94546.97
2023-04-03T17:55:41.924Z,94560.13
2023-04-03T17:58:08.616Z,94557.72
2023-04-03T18:00:37.399Z,94554.31
2023-04-03T18:03:04.547Z,94562.66
2023-04-03T18:05:31.738Z,94558.84
2023-04-03T18:07:58.950Z,94568.16
2023-04-03T18:10:25.695Z,94572.78
2023-04-03T18:12:53.244Z,94558.66
2023-04-03T18:15:20.117Z,94568.47
2023-04-03T18:17:47.302Z,94571.78
2023-04-03T18:20:15.282Z,94579.16
2023-04-03T18:22:42.446Z,94583.81
2023-04-03T18:25:11.617Z,94586.28
2023-04-03T18:27:38.309Z,94588.00
2023-04-03T18:30:13.351Z,94592.81
2023-04-03T18:32:41.318Z,94591.25
2023-04-03T18:35:09.361Z,94590.16
2023-04-03T18:37:36.796Z,94594.00
2023-04-03T18:40:03.515Z,94592.81
2023-04-03T18:42:30.329Z,94592.38
2023-04-03T18:44:59.286Z,94595.13
2023-04-03T18:47:27.933Z,94598.19
2023-04-03T18:49:54.720Z,94599.28
2023-04-03T18:52:21.461Z,94614.16
2023-04-03T18:54:48.134Z,94611.31
2023-04-03T18:57:14.788Z,94613.72
2023-04-03T18:59:41.620Z,94614.16
2023-04-03T19:02:09.060Z,94612.88
2023-04-03T19:04:36.409Z,94618.59
2023-04-03T19:07:05.565Z,94603.59
2023-04-03T19:09:33.375Z,94613.56
2023-04-03T19:12:01.712Z,94618.06
2023-04-03T19:14:28.361Z,94614.09
2023-04-03T19:16:55.114Z,94613.47
2023-04-03T19:19:21.945Z,94617.63
2023-04-03T19:21:48.621Z,94625.56
2023-04-03T19:24:15.435Z,94622.69
2023-04-03T19:26:42.957Z,94620.66
2023-04-03T19:29:10.392Z,94624.50
2023-04-03T19:31:38.019Z,94631.09
2023-04-03T19:34:05.716Z,94629.19
2023-04-03T19:36:33.930Z,94632.09
2023-04-03T19:39:00.830Z,94631.31
2023-04-03T19:41:28.953Z,94628.16
2023-04-03T19:43:56.481Z,94631.09
2023-04-03T19:46:25.036Z,94625.53
2023-04-03T19:48:52.308Z,94640.19
2023-04-03T19:51:19.144Z,94641.25
2023-04-03T19:53:47.437Z,94638.53
2023-04-03T19:56:16.651Z,94645.84
2023-04-03T19:58:43.500Z,94642.75
2023-04-03T20:01:10.684Z,94643.47
2023-04-03T20:03:37.359Z,94625.16
2023-04-03T20:06:05.036Z,94645.69
2023-04-03T20:08:32.306Z,94653.72
2023-04-03T20:10:58.980Z,94655.03
2023-04-03T20:13:25.646Z,94658.63
2023-04-03T20:15:53.461Z,94656.69
2023-04-03T20:18:21.305Z,94665.53
2023-04-03T20:20:56.009Z,94660.44
2023-04-03T20:23:23.442Z,94654.03
2023-04-03T20:26:02.090Z,94662.06
2023-04-03T20:28:36.410Z,94658.22
2023-04-03T20:31:03.856Z,94654.94
2023-04-03T20:33:30.802Z,94650.78
2023-04-03T20:35:58.404Z,94656.41
2023-04-03T20:38:25.412Z,94646.59
2023-04-03T20:40:52.525Z,94647.84
2023-04-03T20:43:19.650Z,94644.06
2023-04-03T20:45:48.090Z,94647.41
2023-04-03T20:48:15.307Z,94641.34
2023-04-03T20:50:42.386Z,94646.75
2023-04-03T20:53:09.582Z,94645.84
2023-04-03T20:55:36.380Z,94648.78
2023-04-03T20:58:03.651Z,94653.84
2023-04-03T21:00:32.376Z,94650.09
2023-04-03T21:03:01.488Z,94648.53
2023-04-03T21:05:30.375Z,94662.53
2023-04-03T21:08:35.052Z,94657.25
2023-04-03T21:11:39.484Z,94656.81
2023-04-03T21:14:43.708Z,94659.25
2023-04-03T21:17:10.414Z,94657.78
2023-04-03T21:19:43.266Z,94654.13
2023-04-03T21:22:10.366Z,94663.38
2023-04-03T21:24:37.803Z,94655.41
2023-04-03T21:27:04.962Z,94659.25
2023-04-03T21:29:31.598Z,94663.44
2023-04-03T21:31:59.808Z,94660.63
2023-04-03T21:34:28.619Z,94645.34
2023-04-03T21:36:57.520Z,94658.34
2023-04-03T21:39:24.296Z,94660.09
2023-04-03T21:41:54.009Z,94660.91
2023-04-03T21:44:21.025Z,94649.69
2023-04-03T21:46:48.306Z,94652.88
2023-04-03T21:49:15.255Z,94641.94
2023-04-03T21:51:42.036Z,94642.59
2023-04-03T21:54:08.617Z,94642.44
2023-04-03T21:56:35.234Z,94637.47
2023-04-03T21:59:03.010Z,94636.16
2023-04-03T22:01:30.126Z,94637.19
2023-04-03T22:04:01.877Z,94628.09
2023-04-03T22:06:28.804Z,94630.59
2023-04-03T22:08:57.218Z,94630.97
2023-04-03T22:11:27.659Z,94630.47
2023-04-03T22:13:55.609Z,94634.41
2023-04-03T22:16:23.641Z,94636.16
2023-04-03T22:18:54.771Z,94629.44
2023-04-03T22:21:22.467Z,94618.91
2023-04-03T22:23:49.349Z,94621.03
2023-04-03T22:26:16.554Z,94616.94
2023-04-03T22:28:47.309Z,94613.09
2023-04-03T22:31:15.047Z,94620.25
2023-04-03T22:33:43.081Z,94623.63
2023-04-03T22:36:11.141Z,94626.34
2023-04-03T22:38:39.043Z,94617.81
2023-04-03T22:41:07.521Z,94629.56
2023-04-03T22:43:36.523Z,94623.78
2023-04-03T22:46:05.172Z,94624.38
2023-04-03T22:48:32.104Z,94614.31
2023-04-03T22:51:00.110Z,94613.31
2023-04-03T22:53:27.469Z,94608.53
2023-04-03T22:55:58.453Z,94606.47
2023-04-03T22:58:26.554Z,94607.63
2023-04-03T23:01:07.672Z,94609.25
2023-04-03T23:03:39.593Z,94608.50
2023-04-03T23:06:07.861Z,94609.63
2023-04-03T23:08:38.049Z,94603.69
2023-04-03T23:11:07.114Z,94602.13
2023-04-03T23:13:33.932Z,94601.50
2023-04-03T23:16:01.550Z,94599.41
2023-04-03T23:18:29.869Z,94602.94
2023-04-03T23:20:57.216Z,94602.59
2023-04-03T23:23:25.304Z,94603.44
2023-04-03T23:26:02.084Z,94600.81
2023-04-03T23:28:29.548Z,94611.44
2023-04-03T23:31:06.280Z,94610.66
2023-04-03T23:33:33.426Z,94613.31
2023-04-03T23:36:01.380Z,94610.94
2023-04-03T23:38:28.490Z,94603.38
2023-04-03T23:40:55.216Z,94600.81
2023-04-03T23:43:22.007Z,94601.59
2023-04-03T23:45:48.757Z,94601.78
2023-04-03T23:48:15.676Z,94596.34
2023-04-03T23:50:43.798Z,94591.31
2023-04-03T23:53:13.018Z,94598.84
2023-04-03T23:55:39.771Z,94594.97
2023-04-03T23:58:06.802Z,94597.25
